sensor_id;sensor_type;location;lat;lon;timestamp;temperature;humidity
73777;DHT22;62088;50.240;2.696;2022-09-09T00:02:01;15.90;80.60
73777;DHT22;62088;50.240;2.696;2022-09-09T00:04:39;15.90;80.80
73777;DHT22;62088;50.240;2.696;2022-09-09T00:07:15;15.90;80.80
73777;DHT22;62088;50.240;2.696;2022-09-09T00:16:17;15.90;80.80
73777;DHT22;62088;50.240;2.696;2022-09-09T00:19:07;15.90;80.80
73777;DHT22;62088;50.240;2.696;2022-09-09T00:21:39;15.90;80.80
73777;DHT22;62088;50.240;2.696;2022-09-09T00:25:00;15.90;80.90
73777;DHT22;62088;50.240;2.696;2022-09-09T00:30:00;15.90;81.00
73777;DHT22;62088;50.240;2.696;2022-09-09T00:32:30;15.90;81.00
73777;DHT22;62088;50.240;2.696;2022-09-09T00:35:04;15.90;81.10
73777;DHT22;62088;50.240;2.696;2022-09-09T00:37:38;15.90;81.30
73777;DHT22;62088;50.240;2.696;2022-09-09T00:40:31;15.90;81.30
73777;DHT22;62088;50.240;2.696;2022-09-09T00:46:33;15.90;81.40
73777;DHT22;62088;50.240;2.696;2022-09-09T00:54:32;15.90;81.60
73777;DHT22;62088;50.240;2.696;2022-09-09T00:59:51;15.90;81.70
73777;DHT22;62088;50.240;2.696;2022-09-09T01:02:39;15.90;81.70
73777;DHT22;62088;50.240;2.696;2022-09-09T01:05:23;15.90;81.70
73777;DHT22;62088;50.240;2.696;2022-09-09T01:07:53;15.90;81.60
73777;DHT22;62088;50.240;2.696;2022-09-09T01:10:44;15.90;81.60
73777;DHT22;62088;50.240;2.696;2022-09-09T01:13:25;15.90;81.60
73777;DHT22;62088;50.240;2.696;2022-09-09T01:15:53;15.90;81.60
73777;DHT22;62088;50.240;2.696;2022-09-09T01:18:49;15.90;81.50
73777;DHT22;62088;50.240;2.696;2022-09-09T01:21:46;15.80;81.50
73777;DHT22;62088;50.240;2.696;2022-09-09T01:24:42;15.80;81.50
73777;DHT22;62088;50.240;2.696;2022-09-09T01:27:24;15.80;81.60
73777;DHT22;62088;50.240;2.696;2022-09-09T01:29:52;15.80;81.60
73777;DHT22;62088;50.240;2.696;2022-09-09T01:32:42;15.70;81.60
73777;DHT22;62088;50.240;2.696;2022-09-09T01:35:22;15.70;81.60
73777;DHT22;62088;50.240;2.696;2022-09-09T01:37:54;15.70;81.60
73777;DHT22;62088;50.240;2.696;2022-09-09T01:40:21;15.70;81.60
73777;DHT22;62088;50.240;2.696;2022-09-09T01:42:49;15.70;81.70
73777;DHT22;62088;50.240;2.696;2022-09-09T01:45:16;15.70;81.70
73777;DHT22;62088;50.240;2.696;2022-09-09T01:47:43;15.70;81.70
73777;DHT22;62088;50.240;2.696;2022-09-09T01:50:19;15.70;81.80
73777;DHT22;62088;50.240;2.696;2022-09-09T01:52:50;15.70;81.80
73777;DHT22;62088;50.240;2.696;2022-09-09T01:55:41;15.70;81.70
73777;DHT22;62088;50.240;2.696;2022-09-09T02:01:26;15.70;81.70
73777;DHT22;62088;50.240;2.696;2022-09-09T02:03:53;15.70;81.80
73777;DHT22;62088;50.240;2.696;2022-09-09T02:06:37;15.70;81.70
73777;DHT22;62088;50.240;2.696;2022-09-09T02:09:23;15.70;81.80
73777;DHT22;62088;50.240;2.696;2022-09-09T02:11:58;15.70;81.70
73777;DHT22;62088;50.240;2.696;2022-09-09T02:14:40;15.70;81.60
73777;DHT22;62088;50.240;2.696;2022-09-09T02:17:10;15.70;81.60
73777;DHT22;62088;50.240;2.696;2022-09-09T02:20:05;15.70;81.50
73777;DHT22;62088;50.240;2.696;2022-09-09T02:22:43;15.70;81.50
73777;DHT22;62088;50.240;2.696;2022-09-09T02:25:17;15.70;81.60
73777;DHT22;62088;50.240;2.696;2022-09-09T02:27:46;15.70;81.50
73777;DHT22;62088;50.240;2.696;2022-09-09T02:30:14;15.70;81.60
73777;DHT22;62088;50.240;2.696;2022-09-09T02:32:51;15.70;81.50
73777;DHT22;62088;50.240;2.696;2022-09-09T02:35:23;15.70;81.50
73777;DHT22;62088;50.240;2.696;2022-09-09T02:37:53;15.60;81.50
73777;DHT22;62088;50.240;2.696;2022-09-09T02:40:22;15.60;81.60
73777;DHT22;62088;50.240;2.696;2022-09-09T02:42:57;15.60;81.60
73777;DHT22;62088;50.240;2.696;2022-09-09T02:45:27;15.60;81.60
73777;DHT22;62088;50.240;2.696;2022-09-09T02:48:34;15.60;81.50
73777;DHT22;62088;50.240;2.696;2022-09-09T02:51:18;15.60;81.60
73777;DHT22;62088;50.240;2.696;2022-09-09T02:54:04;15.60;81.70
73777;DHT22;62088;50.240;2.696;2022-09-09T02:56:41;15.60;81.80
73777;DHT22;62088;50.240;2.696;2022-09-09T02:59:11;15.60;81.90
73777;DHT22;62088;50.240;2.696;2022-09-09T03:01:39;15.60;82.00
73777;DHT22;62088;50.240;2.696;2022-09-09T03:04:08;15.60;82.00
73777;DHT22;62088;50.240;2.696;2022-09-09T03:06:36;15.60;82.00
73777;DHT22;62088;50.240;2.696;2022-09-09T03:09:14;15.60;82.10
73777;DHT22;62088;50.240;2.696;2022-09-09T03:11:41;15.60;82.00
73777;DHT22;62088;50.240;2.696;2022-09-09T03:14:07;15.60;82.00
73777;DHT22;62088;50.240;2.696;2022-09-09T03:16:35;15.60;81.90
73777;DHT22;62088;50.240;2.696;2022-09-09T03:19:03;15.60;81.90
73777;DHT22;62088;50.240;2.696;2022-09-09T03:21:30;15.60;81.80
73777;DHT22;62088;50.240;2.696;2022-09-09T03:23:57;15.60;81.80
73777;DHT22;62088;50.240;2.696;2022-09-09T03:26:24;15.60;81.80
73777;DHT22;62088;50.240;2.696;2022-09-09T03:28:51;15.60;81.90
73777;DHT22;62088;50.240;2.696;2022-09-09T03:31:21;15.60;81.90
73777;DHT22;62088;50.240;2.696;2022-09-09T03:33:49;15.60;81.90
73777;DHT22;62088;50.240;2.696;2022-09-09T03:36:18;15.60;81.90
73777;DHT22;62088;50.240;2.696;2022-09-09T03:38:45;15.60;81.90
73777;DHT22;62088;50.240;2.696;2022-09-09T03:41:12;15.60;81.90
73777;DHT22;62088;50.240;2.696;2022-09-09T03:43:39;15.60;81.90
73777;DHT22;62088;50.240;2.696;2022-09-09T03:46:06;15.60;81.90
73777;DHT22;62088;50.240;2.696;2022-09-09T03:48:33;15.60;81.90
73777;DHT22;62088;50.240;2.696;2022-09-09T03:51:00;15.60;82.00
73777;DHT22;62088;50.240;2.696;2022-09-09T03:53:30;15.60;82.10
73777;DHT22;62088;50.240;2.696;2022-09-09T03:55:58;15.60;82.10
73777;DHT22;62088;50.240;2.696;2022-09-09T03:58:28;15.60;82.00
73777;DHT22;62088;50.240;2.696;2022-09-09T04:01:09;15.60;82.10
73777;DHT22;62088;50.240;2.696;2022-09-09T04:03:37;15.50;82.00
73777;DHT22;62088;50.240;2.696;2022-09-09T04:06:06;15.60;82.00
73777;DHT22;62088;50.240;2.696;2022-09-09T04:08:34;15.50;82.00
73777;DHT22;62088;50.240;2.696;2022-09-09T04:11:03;15.50;82.00
73777;DHT22;62088;50.240;2.696;2022-09-09T04:13:35;15.50;82.00
73777;DHT22;62088;50.240;2.696;2022-09-09T04:16:03;15.50;82.00
73777;DHT22;62088;50.240;2.696;2022-09-09T04:18:33;15.50;82.00
73777;DHT22;62088;50.240;2.696;2022-09-09T04:21:02;15.50;81.90
73777;DHT22;62088;50.240;2.696;2022-09-09T04:23:32;15.50;81.90
73777;DHT22;62088;50.240;2.696;2022-09-09T04:26:01;15.50;81.80
73777;DHT22;62088;50.240;2.696;2022-09-09T04:28:31;15.50;81.90
73777;DHT22;62088;50.240;2.696;2022-09-09T04:31:09;15.50;81.90
73777;DHT22;62088;50.240;2.696;2022-09-09T04:33:39;15.50;81.90
73777;DHT22;62088;50.240;2.696;2022-09-09T04:36:07;15.50;81.90
73777;DHT22;62088;50.240;2.696;2022-09-09T04:38:35;15.50;81.80
73777;DHT22;62088;50.240;2.696;2022-09-09T04:41:03;15.40;81.90
73777;DHT22;62088;50.240;2.696;2022-09-09T04:43:32;15.50;81.90
73777;DHT22;62088;50.240;2.696;2022-09-09T04:46:01;15.50;81.90
73777;DHT22;62088;50.240;2.696;2022-09-09T04:48:29;15.50;81.80
73777;DHT22;62088;50.240;2.696;2022-09-09T04:51:04;15.40;81.80
73777;DHT22;62088;50.240;2.696;2022-09-09T04:53:32;15.40;81.70
73777;DHT22;62088;50.240;2.696;2022-09-09T04:56:14;15.50;81.60
73777;DHT22;62088;50.240;2.696;2022-09-09T04:58:47;15.50;81.60
73777;DHT22;62088;50.240;2.696;2022-09-09T05:01:20;15.50;81.60
73777;DHT22;62088;50.240;2.696;2022-09-09T05:03:50;15.50;81.60
73777;DHT22;62088;50.240;2.696;2022-09-09T05:06:22;15.40;81.60
73777;DHT22;62088;50.240;2.696;2022-09-09T05:08:53;15.50;81.60
73777;DHT22;62088;50.240;2.696;2022-09-09T05:11:28;15.50;81.60
73777;DHT22;62088;50.240;2.696;2022-09-09T05:14:07;15.50;81.60
73777;DHT22;62088;50.240;2.696;2022-09-09T05:16:35;15.50;81.60
73777;DHT22;62088;50.240;2.696;2022-09-09T05:19:02;15.50;81.70
73777;DHT22;62088;50.240;2.696;2022-09-09T05:21:41;15.50;81.70
73777;DHT22;62088;50.240;2.696;2022-09-09T05:24:08;15.40;81.60
73777;DHT22;62088;50.240;2.696;2022-09-09T05:26:35;15.40;81.70
73777;DHT22;62088;50.240;2.696;2022-09-09T05:29:02;15.40;81.70
73777;DHT22;62088;50.240;2.696;2022-09-09T05:31:30;15.40;81.80
73777;DHT22;62088;50.240;2.696;2022-09-09T05:34:01;15.40;81.70
73777;DHT22;62088;50.240;2.696;2022-09-09T05:36:28;15.40;81.70
73777;DHT22;62088;50.240;2.696;2022-09-09T05:38:56;15.40;81.80
73777;DHT22;62088;50.240;2.696;2022-09-09T05:41:25;15.40;81.70
73777;DHT22;62088;50.240;2.696;2022-09-09T05:43:54;15.40;81.80
73777;DHT22;62088;50.240;2.696;2022-09-09T05:46:23;15.50;81.70
73777;DHT22;62088;50.240;2.696;2022-09-09T05:48:53;15.50;81.70
73777;DHT22;62088;50.240;2.696;2022-09-09T05:51:26;15.50;81.70
73777;DHT22;62088;50.240;2.696;2022-09-09T05:53:56;15.50;81.70
73777;DHT22;62088;50.240;2.696;2022-09-09T05:56:28;15.50;81.70
73777;DHT22;62088;50.240;2.696;2022-09-09T05:58:58;15.60;81.80
73777;DHT22;62088;50.240;2.696;2022-09-09T06:01:31;15.60;81.90
73777;DHT22;62088;50.240;2.696;2022-09-09T06:04:01;15.60;82.00
73777;DHT22;62088;50.240;2.696;2022-09-09T06:06:36;15.60;82.00
73777;DHT22;62088;50.240;2.696;2022-09-09T06:09:17;15.70;82.00
73777;DHT22;62088;50.240;2.696;2022-09-09T06:11:44;15.70;82.00
73777;DHT22;62088;50.240;2.696;2022-09-09T06:14:13;15.80;81.70
73777;DHT22;62088;50.240;2.696;2022-09-09T06:16:43;15.80;81.90
73777;DHT22;62088;50.240;2.696;2022-09-09T06:19:16;15.90;82.00
73777;DHT22;62088;50.240;2.696;2022-09-09T06:21:43;15.90;82.30
73777;DHT22;62088;50.240;2.696;2022-09-09T06:24:11;15.90;82.50
73777;DHT22;62088;50.240;2.696;2022-09-09T06:26:40;15.90;82.50
73777;DHT22;62088;50.240;2.696;2022-09-09T06:29:10;15.90;82.60
73777;DHT22;62088;50.240;2.696;2022-09-09T06:31:39;15.90;82.60
73777;DHT22;62088;50.240;2.696;2022-09-09T06:34:13;15.90;82.50
73777;DHT22;62088;50.240;2.696;2022-09-09T06:36:44;15.80;82.70
73777;DHT22;62088;50.240;2.696;2022-09-09T06:39:12;15.80;82.80
73777;DHT22;62088;50.240;2.696;2022-09-09T06:41:41;15.80;82.80
73777;DHT22;62088;50.240;2.696;2022-09-09T06:44:27;15.70;82.90
73777;DHT22;62088;50.240;2.696;2022-09-09T06:47:01;15.70;83.00
73777;DHT22;62088;50.240;2.696;2022-09-09T06:49:28;15.70;83.20
73777;DHT22;62088;50.240;2.696;2022-09-09T06:51:55;15.70;83.20
73777;DHT22;62088;50.240;2.696;2022-09-09T06:54:22;15.70;83.20
73777;DHT22;62088;50.240;2.696;2022-09-09T06:56:50;15.60;83.30
73777;DHT22;62088;50.240;2.696;2022-09-09T06:59:22;15.60;83.40
73777;DHT22;62088;50.240;2.696;2022-09-09T07:01:51;15.60;83.50
73777;DHT22;62088;50.240;2.696;2022-09-09T07:04:22;15.60;83.50
73777;DHT22;62088;50.240;2.696;2022-09-09T07:06:49;15.60;83.50
73777;DHT22;62088;50.240;2.696;2022-09-09T07:09:20;15.60;83.50
73777;DHT22;62088;50.240;2.696;2022-09-09T07:11:51;15.70;83.60
73777;DHT22;62088;50.240;2.696;2022-09-09T07:14:22;15.60;83.60
73777;DHT22;62088;50.240;2.696;2022-09-09T07:17:02;15.60;83.70
73777;DHT22;62088;50.240;2.696;2022-09-09T07:19:34;15.60;83.70
73777;DHT22;62088;50.240;2.696;2022-09-09T07:22:03;15.60;83.80
73777;DHT22;62088;50.240;2.696;2022-09-09T07:24:31;15.60;83.90
73777;DHT22;62088;50.240;2.696;2022-09-09T07:26:58;15.60;83.90
73777;DHT22;62088;50.240;2.696;2022-09-09T07:29:26;15.60;83.90
73777;DHT22;62088;50.240;2.696;2022-09-09T07:31:53;15.60;84.00
73777;DHT22;62088;50.240;2.696;2022-09-09T07:34:25;15.60;84.10
73777;DHT22;62088;50.240;2.696;2022-09-09T07:36:52;15.50;84.10
73777;DHT22;62088;50.240;2.696;2022-09-09T07:39:20;15.60;84.20
73777;DHT22;62088;50.240;2.696;2022-09-09T07:41:50;15.50;84.30
73777;DHT22;62088;50.240;2.696;2022-09-09T07:44:22;15.50;84.30
73777;DHT22;62088;50.240;2.696;2022-09-09T07:46:56;15.50;84.40
73777;DHT22;62088;50.240;2.696;2022-09-09T07:49:29;15.60;84.40
73777;DHT22;62088;50.240;2.696;2022-09-09T07:52:00;15.50;84.50
73777;DHT22;62088;50.240;2.696;2022-09-09T07:54:27;15.50;84.50
73777;DHT22;62088;50.240;2.696;2022-09-09T07:56:54;15.50;84.60
73777;DHT22;62088;50.240;2.696;2022-09-09T07:59:25;15.50;84.60
73777;DHT22;62088;50.240;2.696;2022-09-09T08:01:53;15.50;84.60
73777;DHT22;62088;50.240;2.696;2022-09-09T08:04:25;15.50;84.60
73777;DHT22;62088;50.240;2.696;2022-09-09T08:06:58;15.50;84.60
73777;DHT22;62088;50.240;2.696;2022-09-09T08:09:28;15.50;84.70
73777;DHT22;62088;50.240;2.696;2022-09-09T08:12:08;15.50;84.80
73777;DHT22;62088;50.240;2.696;2022-09-09T08:14:35;15.50;84.80
73777;DHT22;62088;50.240;2.696;2022-09-09T08:17:03;15.50;84.90
73777;DHT22;62088;50.240;2.696;2022-09-09T08:19:32;15.50;84.90
73777;DHT22;62088;50.240;2.696;2022-09-09T08:22:07;15.50;85.00
73777;DHT22;62088;50.240;2.696;2022-09-09T08:24:37;15.50;85.00
73777;DHT22;62088;50.240;2.696;2022-09-09T08:27:04;15.50;85.10
73777;DHT22;62088;50.240;2.696;2022-09-09T08:29:32;15.50;85.10
73777;DHT22;62088;50.240;2.696;2022-09-09T08:31:59;15.50;85.10
73777;DHT22;62088;50.240;2.696;2022-09-09T08:34:27;15.50;85.10
73777;DHT22;62088;50.240;2.696;2022-09-09T08:36:56;15.50;85.10
73777;DHT22;62088;50.240;2.696;2022-09-09T08:39:30;15.60;85.20
73777;DHT22;62088;50.240;2.696;2022-09-09T08:50:23;15.60;85.30
73777;DHT22;62088;50.240;2.696;2022-09-09T08:53:11;15.60;85.30
73777;DHT22;62088;50.240;2.696;2022-09-09T08:55:50;15.60;85.40
73777;DHT22;62088;50.240;2.696;2022-09-09T08:58:30;15.60;85.40
73777;DHT22;62088;50.240;2.696;2022-09-09T09:07:01;15.70;85.50
73777;DHT22;62088;50.240;2.696;2022-09-09T09:13:47;15.80;85.50
73777;DHT22;62088;50.240;2.696;2022-09-09T09:19:17;15.80;85.60
73777;DHT22;62088;50.240;2.696;2022-09-09T09:22:22;15.80;85.60
73777;DHT22;62088;50.240;2.696;2022-09-09T09:24:55;15.80;85.70
73777;DHT22;62088;50.240;2.696;2022-09-09T09:27:32;15.80;85.60
73777;DHT22;62088;50.240;2.696;2022-09-09T09:30:04;15.90;85.70
73777;DHT22;62088;50.240;2.696;2022-09-09T09:33:04;15.90;85.70
73777;DHT22;62088;50.240;2.696;2022-09-09T09:35:32;15.90;85.70
73777;DHT22;62088;50.240;2.696;2022-09-09T09:38:21;15.90;85.70
73777;DHT22;62088;50.240;2.696;2022-09-09T09:41:09;15.90;85.70
73777;DHT22;62088;50.240;2.696;2022-09-09T09:43:40;15.90;85.70
73777;DHT22;62088;50.240;2.696;2022-09-09T09:46:23;15.90;85.70
73777;DHT22;62088;50.240;2.696;2022-09-09T09:49:02;15.90;85.70
73777;DHT22;62088;50.240;2.696;2022-09-09T09:51:32;15.90;85.70
73777;DHT22;62088;50.240;2.696;2022-09-09T09:54:22;15.90;85.80
73777;DHT22;62088;50.240;2.696;2022-09-09T09:56:55;16.00;85.80
73777;DHT22;62088;50.240;2.696;2022-09-09T10:02:18;16.00;85.90
73777;DHT22;62088;50.240;2.696;2022-09-09T10:05:20;16.00;85.90
73777;DHT22;62088;50.240;2.696;2022-09-09T10:08:13;16.10;86.00
73777;DHT22;62088;50.240;2.696;2022-09-09T10:11:03;16.10;86.00
73777;DHT22;62088;50.240;2.696;2022-09-09T10:19:05;16.20;86.10
73777;DHT22;62088;50.240;2.696;2022-09-09T10:25:01;16.40;86.30
73777;DHT22;62088;50.240;2.696;2022-09-09T10:33:18;16.40;86.40
73777;DHT22;62088;50.240;2.696;2022-09-09T10:36:20;16.40;86.40
73777;DHT22;62088;50.240;2.696;2022-09-09T10:39:05;16.50;86.50
73777;DHT22;62088;50.240;2.696;2022-09-09T10:42:07;16.60;86.50
73777;DHT22;62088;50.240;2.696;2022-09-09T10:48:08;16.70;86.40
73777;DHT22;62088;50.240;2.696;2022-09-09T10:56:28;16.80;86.30
73777;DHT22;62088;50.240;2.696;2022-09-09T10:59:05;16.90;86.00
73777;DHT22;62088;50.240;2.696;2022-09-09T11:01:53;16.90;85.80
73777;DHT22;62088;50.240;2.696;2022-09-09T11:04:28;16.90;85.80
73777;DHT22;62088;50.240;2.696;2022-09-09T11:07:00;16.90;85.70
73777;DHT22;62088;50.240;2.696;2022-09-09T11:09:49;16.90;85.70
73777;DHT22;62088;50.240;2.696;2022-09-09T11:12:20;16.90;85.60
73777;DHT22;62088;50.240;2.696;2022-09-09T11:14:55;17.00;85.50
73777;DHT22;62088;50.240;2.696;2022-09-09T11:17:47;17.00;85.50
73777;DHT22;62088;50.240;2.696;2022-09-09T11:20:16;17.10;85.60
73777;DHT22;62088;50.240;2.696;2022-09-09T11:25:35;17.20;85.80
73777;DHT22;62088;50.240;2.696;2022-09-09T11:37:38;17.30;85.60
73777;DHT22;62088;50.240;2.696;2022-09-09T11:40:28;17.40;85.60
73777;DHT22;62088;50.240;2.696;2022-09-09T11:43:13;17.40;85.40
73777;DHT22;62088;50.240;2.696;2022-09-09T11:45:43;17.40;85.20
73777;DHT22;62088;50.240;2.696;2022-09-09T11:48:39;17.50;85.30
73777;DHT22;62088;50.240;2.696;2022-09-09T11:51:31;17.50;85.40
73777;DHT22;62088;50.240;2.696;2022-09-09T11:56:49;17.70;85.70
73777;DHT22;62088;50.240;2.696;2022-09-09T11:59:24;17.80;85.40
73777;DHT22;62088;50.240;2.696;2022-09-09T12:02:13;17.90;85.00
73777;DHT22;62088;50.240;2.696;2022-09-09T12:05:10;17.90;84.90
73777;DHT22;62088;50.240;2.696;2022-09-09T12:07:41;18.00;84.80
73777;DHT22;62088;50.240;2.696;2022-09-09T12:10:30;18.00;84.80
73777;DHT22;62088;50.240;2.696;2022-09-09T12:13:19;18.10;84.90
73777;DHT22;62088;50.240;2.696;2022-09-09T12:18:33;18.40;85.00
73777;DHT22;62088;50.240;2.696;2022-09-09T12:32:07;18.80;83.40
73777;DHT22;62088;50.240;2.696;2022-09-09T12:34:40;18.90;83.00
73777;DHT22;62088;50.240;2.696;2022-09-09T12:37:33;19.00;82.50
73777;DHT22;62088;50.240;2.696;2022-09-09T12:40:06;19.10;81.70
73777;DHT22;62088;50.240;2.696;2022-09-09T12:42:33;19.20;81.10
73777;DHT22;62088;50.240;2.696;2022-09-09T12:50:22;19.50;79.70
73777;DHT22;62088;50.240;2.696;2022-09-09T12:52:55;19.60;79.70
73777;DHT22;62088;50.240;2.696;2022-09-09T12:55:32;19.70;79.70
73777;DHT22;62088;50.240;2.696;2022-09-09T12:58:02;19.90;78.20
73777;DHT22;62088;50.240;2.696;2022-09-09T13:00:34;19.90;77.30
73777;DHT22;62088;50.240;2.696;2022-09-09T13:03:24;20.00;76.80
73777;DHT22;62088;50.240;2.696;2022-09-09T13:05:50;20.00;76.50
73777;DHT22;62088;50.240;2.696;2022-09-09T13:08:17;19.90;76.10
73777;DHT22;62088;50.240;2.696;2022-09-09T13:10:55;20.00;75.90
73777;DHT22;62088;50.240;2.696;2022-09-09T13:13:38;20.00;75.40
73777;DHT22;62088;50.240;2.696;2022-09-09T13:16:17;20.10;75.50
73777;DHT22;62088;50.240;2.696;2022-09-09T13:18:46;20.20;75.10
73777;DHT22;62088;50.240;2.696;2022-09-09T13:21:13;20.20;74.80
73777;DHT22;62088;50.240;2.696;2022-09-09T13:23:41;20.30;74.60
73777;DHT22;62088;50.240;2.696;2022-09-09T13:26:26;20.40;74.70
73777;DHT22;62088;50.240;2.696;2022-09-09T13:28:54;20.40;73.80
73777;DHT22;62088;50.240;2.696;2022-09-09T13:31:33;20.40;73.50
73777;DHT22;62088;50.240;2.696;2022-09-09T13:34:28;20.50;72.90
73777;DHT22;62088;50.240;2.696;2022-09-09T13:37:03;20.60;73.40
73777;DHT22;62088;50.240;2.696;2022-09-09T13:39:34;20.80;73.60
73777;DHT22;62088;50.240;2.696;2022-09-09T13:42:03;20.90;72.50
73777;DHT22;62088;50.240;2.696;2022-09-09T13:44:36;20.90;71.80
73777;DHT22;62088;50.240;2.696;2022-09-09T13:47:22;21.10;72.10
73777;DHT22;62088;50.240;2.696;2022-09-09T13:49:53;21.20;71.00
73777;DHT22;62088;50.240;2.696;2022-09-09T13:52:20;21.40;70.10
73777;DHT22;62088;50.240;2.696;2022-09-09T13:54:49;21.40;69.60
73777;DHT22;62088;50.240;2.696;2022-09-09T13:57:23;21.40;69.20
73777;DHT22;62088;50.240;2.696;2022-09-09T13:59:53;21.40;67.20
73777;DHT22;62088;50.240;2.696;2022-09-09T14:02:36;21.40;67.10
73777;DHT22;62088;50.240;2.696;2022-09-09T14:05:05;21.30;67.90
73777;DHT22;62088;50.240;2.696;2022-09-09T14:07:32;21.20;68.30
73777;DHT22;62088;50.240;2.696;2022-09-09T14:09:59;21.20;67.00
73777;DHT22;62088;50.240;2.696;2022-09-09T14:12:27;21.20;66.60
73777;DHT22;62088;50.240;2.696;2022-09-09T14:14:54;21.30;68.00
73777;DHT22;62088;50.240;2.696;2022-09-09T14:17:21;21.30;68.20
73777;DHT22;62088;50.240;2.696;2022-09-09T14:19:48;21.40;68.50
73777;DHT22;62088;50.240;2.696;2022-09-09T14:22:16;21.40;68.00
73777;DHT22;62088;50.240;2.696;2022-09-09T14:24:42;21.40;66.90
73777;DHT22;62088;50.240;2.696;2022-09-09T14:27:09;21.40;66.90
73777;DHT22;62088;50.240;2.696;2022-09-09T14:29:36;21.30;67.30
73777;DHT22;62088;50.240;2.696;2022-09-09T14:32:03;21.20;67.70
73777;DHT22;62088;50.240;2.696;2022-09-09T14:34:36;21.00;68.40
73777;DHT22;62088;50.240;2.696;2022-09-09T14:37:03;20.90;69.20
73777;DHT22;62088;50.240;2.696;2022-09-09T14:39:30;20.80;70.00
73777;DHT22;62088;50.240;2.696;2022-09-09T14:41:57;20.60;71.10
73777;DHT22;62088;50.240;2.696;2022-09-09T14:44:24;20.60;72.50
73777;DHT22;62088;50.240;2.696;2022-09-09T14:46:51;20.70;73.30
73777;DHT22;62088;50.240;2.696;2022-09-09T14:49:18;20.70;73.30
73777;DHT22;62088;50.240;2.696;2022-09-09T14:51:45;20.80;73.50
73777;DHT22;62088;50.240;2.696;2022-09-09T14:54:12;20.90;73.00
73777;DHT22;62088;50.240;2.696;2022-09-09T14:56:41;21.00;72.50
73777;DHT22;62088;50.240;2.696;2022-09-09T14:59:08;21.20;71.50
73777;DHT22;62088;50.240;2.696;2022-09-09T15:01:34;21.20;70.30
73777;DHT22;62088;50.240;2.696;2022-09-09T15:04:04;21.30;69.60
73777;DHT22;62088;50.240;2.696;2022-09-09T15:06:33;21.40;68.80
73777;DHT22;62088;50.240;2.696;2022-09-09T15:09:01;21.40;68.40
73777;DHT22;62088;50.240;2.696;2022-09-09T15:11:30;21.40;67.80
73777;DHT22;62088;50.240;2.696;2022-09-09T15:13:58;21.40;66.30
73777;DHT22;62088;50.240;2.696;2022-09-09T15:16:27;21.40;66.70
73777;DHT22;62088;50.240;2.696;2022-09-09T15:18:56;21.40;66.60
73777;DHT22;62088;50.240;2.696;2022-09-09T15:21:26;21.40;66.70
73777;DHT22;62088;50.240;2.696;2022-09-09T15:23:54;21.40;66.90
73777;DHT22;62088;50.240;2.696;2022-09-09T15:26:22;21.30;66.90
73777;DHT22;62088;50.240;2.696;2022-09-09T15:28:49;21.30;66.80
73777;DHT22;62088;50.240;2.696;2022-09-09T15:31:20;21.30;67.20
73777;DHT22;62088;50.240;2.696;2022-09-09T15:36:24;21.20;66.80
73777;DHT22;62088;50.240;2.696;2022-09-09T15:38:52;21.10;67.00
73777;DHT22;62088;50.240;2.696;2022-09-09T15:41:21;21.10;67.20
73777;DHT22;62088;50.240;2.696;2022-09-09T15:43:50;21.10;66.70
73777;DHT22;62088;50.240;2.696;2022-09-09T15:48:44;21.10;66.40
73777;DHT22;62088;50.240;2.696;2022-09-09T15:51:15;21.00;66.60
73777;DHT22;62088;50.240;2.696;2022-09-09T15:54:03;20.90;66.30
73777;DHT22;62088;50.240;2.696;2022-09-09T15:56:30;20.90;66.50
73777;DHT22;62088;50.240;2.696;2022-09-09T15:58:58;20.80;66.70
73777;DHT22;62088;50.240;2.696;2022-09-09T16:01:26;20.70;67.10
73777;DHT22;62088;50.240;2.696;2022-09-09T16:03:54;20.60;67.40
73777;DHT22;62088;50.240;2.696;2022-09-09T16:06:22;20.60;67.70
73777;DHT22;62088;50.240;2.696;2022-09-09T16:08:52;20.50;67.30
73777;DHT22;62088;50.240;2.696;2022-09-09T16:11:22;20.40;67.40
73777;DHT22;62088;50.240;2.696;2022-09-09T16:13:52;20.40;67.40
73777;DHT22;62088;50.240;2.696;2022-09-09T16:16:21;20.40;67.60
73777;DHT22;62088;50.240;2.696;2022-09-09T16:18:51;20.30;67.70
73777;DHT22;62088;50.240;2.696;2022-09-09T16:21:22;20.20;67.80
73777;DHT22;62088;50.240;2.696;2022-09-09T16:23:53;20.10;67.90
73777;DHT22;62088;50.240;2.696;2022-09-09T16:26:23;20.10;68.10
73777;DHT22;62088;50.240;2.696;2022-09-09T16:28:50;20.00;68.00
73777;DHT22;62088;50.240;2.696;2022-09-09T16:31:19;19.90;68.00
73777;DHT22;62088;50.240;2.696;2022-09-09T16:33:47;19.90;68.30
73777;DHT22;62088;50.240;2.696;2022-09-09T16:36:17;19.90;68.60
73777;DHT22;62088;50.240;2.696;2022-09-09T16:38:44;19.90;68.80
73777;DHT22;62088;50.240;2.696;2022-09-09T16:41:13;19.80;69.20
73777;DHT22;62088;50.240;2.696;2022-09-09T16:43:41;19.80;69.90
73777;DHT22;62088;50.240;2.696;2022-09-09T16:46:19;19.60;70.00
73777;DHT22;62088;50.240;2.696;2022-09-09T16:48:47;19.60;70.30
73777;DHT22;62088;50.240;2.696;2022-09-09T16:51:25;19.50;71.20
73777;DHT22;62088;50.240;2.696;2022-09-09T16:53:53;19.30;72.20
73777;DHT22;62088;50.240;2.696;2022-09-09T16:56:22;19.20;72.50
73777;DHT22;62088;50.240;2.696;2022-09-09T16:58:53;18.90;72.80
73777;DHT22;62088;50.240;2.696;2022-09-09T17:01:25;18.70;73.30
73777;DHT22;62088;50.240;2.696;2022-09-09T17:03:53;18.60;73.80
73777;DHT22;62088;50.240;2.696;2022-09-09T17:06:27;18.40;74.20
73777;DHT22;62088;50.240;2.696;2022-09-09T17:09:02;18.30;74.70
73777;DHT22;62088;50.240;2.696;2022-09-09T17:11:29;18.20;75.10
73777;DHT22;62088;50.240;2.696;2022-09-09T17:13:57;18.00;75.50
73777;DHT22;62088;50.240;2.696;2022-09-09T17:16:27;17.90;75.80
73777;DHT22;62088;50.240;2.696;2022-09-09T17:18:56;17.80;76.10
73777;DHT22;62088;50.240;2.696;2022-09-09T17:21:26;17.70;76.50
73777;DHT22;62088;50.240;2.696;2022-09-09T17:23:54;17.60;76.70
73777;DHT22;62088;50.240;2.696;2022-09-09T17:26:25;17.60;77.00
73777;DHT22;62088;50.240;2.696;2022-09-09T17:28:56;17.50;77.20
73777;DHT22;62088;50.240;2.696;2022-09-09T17:31:26;17.40;77.50
73777;DHT22;62088;50.240;2.696;2022-09-09T17:33:54;17.40;77.80
73777;DHT22;62088;50.240;2.696;2022-09-09T17:36:25;17.30;78.00
73777;DHT22;62088;50.240;2.696;2022-09-09T17:38:52;17.30;78.20
73777;DHT22;62088;50.240;2.696;2022-09-09T17:41:22;17.20;78.40
73777;DHT22;62088;50.240;2.696;2022-09-09T17:43:50;17.20;78.60
73777;DHT22;62088;50.240;2.696;2022-09-09T17:46:18;17.10;78.80
73777;DHT22;62088;50.240;2.696;2022-09-09T17:48:50;17.10;78.90
73777;DHT22;62088;50.240;2.696;2022-09-09T17:51:21;17.10;79.00
73777;DHT22;62088;50.240;2.696;2022-09-09T17:53:52;17.10;79.20
73777;DHT22;62088;50.240;2.696;2022-09-09T17:56:23;17.00;79.30
73777;DHT22;62088;50.240;2.696;2022-09-09T17:58:51;17.00;79.40